Terminal Aerodrome Forecast
Issued by NWS Cleveland, OH

Home | Current Version | Previous Version | Graphics & Text | Print | Product List | Glossary On
Versions: 1 2 3 4 5 6 7 8 9 10 11 12 13 14 15 16 17 18 19 20 21 22 23 24 25
453
FTUS41 KCLE 292337
TAFCLE
TAF
KCLE 292337Z 3000/0106 02005KT P6SM BKN025
     FM300200 VRB04KT P6SM SCT035
     FM301300 06008KT P6SM OVC050
     FM302300 06008KT 4SM -RA OVC025
      TEMPO 0103/0106 4SM -RA OVC008=

USA.gov is the U.S. government's official web portal to all federal, state and local government web resources and services.